createdAt,value
2016-09-19T00:00:10.128Z,1134.43
2016-09-19T00:01:10.133Z,1134.35
2016-09-19T00:02:10.144Z,1134.38
2016-09-19T00:03:10.134Z,1134.21
2016-09-19T00:04:10.131Z,1134.12
2016-09-19T00:05:10.128Z,1134.05
2016-09-19T00:06:10.140Z,1134.12
2016-09-19T00:07:10.135Z,1134.08
2016-09-19T00:08:10.133Z,1133.87
2016-09-19T00:09:10.140Z,1133.76
2016-09-19T00:10:10.148Z,1133.8
2016-09-19T00:11:10.140Z,1133.69
2016-09-19T00:12:10.143Z,1133.89
2016-09-19T00:13:10.151Z,1133.81
2016-09-19T00:14:10.147Z,1133.98
2016-09-19T00:15:10.150Z,1133.86
2016-09-19T00:16:10.153Z,1133.78
2016-09-19T00:17:10.153Z,1133.75
2016-09-19T00:18:10.186Z,1133.5
2016-09-19T00:19:10.166Z,1133.58
2016-09-19T00:20:10.172Z,1133.46
2016-09-19T00:21:10.164Z,1133.29
2016-09-19T00:22:10.155Z,1133.34
2016-09-19T00:23:10.163Z,1133.25
2016-09-19T00:24:10.159Z,1133.3
2016-09-19T00:25:10.151Z,1133.11
2016-09-19T00:26:10.160Z,1133.18
2016-09-19T00:27:10.154Z,1133.03
2016-09-19T00:28:10.167Z,1132.98
2016-09-19T00:29:10.156Z,1132.79
2016-09-19T00:30:10.161Z,1132.68
2016-09-19T00:31:10.155Z,1132.73
2016-09-19T00:32:10.177Z,1132.31
2016-09-19T00:33:10.183Z,1132.51
2016-09-19T00:34:10.159Z,1132.52
2016-09-19T00:35:10.166Z,1132.19
2016-09-19T00:36:10.193Z,1132.38
2016-09-19T00:37:10.178Z,1132.36
2016-09-19T00:38:10.208Z,1132.09
2016-09-19T00:39:10.177Z,1132.13
2016-09-19T00:40:10.171Z,1132.04
2016-09-19T00:41:10.211Z,1131.93
2016-09-19T00:42:10.202Z,1131.69
2016-09-19T00:43:10.189Z,1131.64
2016-09-19T00:44:10.217Z,1131.37
2016-09-19T00:45:10.202Z,1131.25
2016-09-19T00:46:10.206Z,1131.26
2016-09-19T00:47:10.185Z,1131.07
2016-09-19T00:48:10.192Z,1131.16
2016-09-19T00:49:10.174Z,1131.22
2016-09-19T00:50:10.185Z,1131.17
2016-09-19T00:51:10.179Z,1131
2016-09-19T00:52:10.183Z,1131.12
2016-09-19T00:53:10.180Z,1131
2016-09-19T00:54:10.191Z,1130.98
2016-09-19T00:55:10.213Z,1130.84
2016-09-19T00:56:10.197Z,1130.67
2016-09-19T00:57:10.191Z,1130.82
2016-09-19T00:58:10.188Z,1130.84
2016-09-19T00:59:10.183Z,1130.68
2016-09-19T01:00:10.195Z,1130.49
2016-09-19T01:01:10.185Z,1130.33
2016-09-19T01:02:10.189Z,1130.29
2016-09-19T01:03:10.186Z,1130.22
2016-09-19T01:04:10.192Z,1130.24
2016-09-19T01:05:10.208Z,1130.1
2016-09-19T01:06:10.187Z,1130.04
2016-09-19T01:07:10.199Z,1130.28
2016-09-19T01:08:10.202Z,1129.99
2016-09-19T01:09:10.216Z,1129.98
2016-09-19T01:10:10.220Z,1130.07
2016-09-19T01:11:10.206Z,1129.96
2016-09-19T01:12:10.202Z,1129.95
2016-09-19T01:13:10.201Z,1129.89
2016-09-19T01:14:10.200Z,1129.78
2016-09-19T01:15:10.215Z,1129.83
2016-09-19T01:16:10.216Z,1129.77
2016-09-19T01:17:10.201Z,1129.69
2016-09-19T01:18:10.208Z,1129.67
2016-09-19T01:19:10.205Z,1129.65
2016-09-19T01:20:10.206Z,1129.45
2016-09-19T01:21:10.214Z,1129.36
2016-09-19T01:22:10.224Z,1129.1
2016-09-19T01:23:10.218Z,1129.24
2016-09-19T01:24:10.218Z,1129.17
2016-09-19T01:25:10.228Z,1128.96
2016-09-19T01:26:10.215Z,1128.93
2016-09-19T01:27:10.231Z,1128.88
2016-09-19T01:28:10.223Z,1128.96
2016-09-19T01:29:10.216Z,1128.77
2016-09-19T01:30:10.219Z,1128.89
2016-09-19T01:31:10.230Z,1128.69
2016-09-19T01:32:10.219Z,1128.73
2016-09-19T01:33:10.225Z,1128.45
2016-09-19T01:34:10.230Z,1128.54
2016-09-19T01:35:10.224Z,1128.34
2016-09-19T01:36:10.222Z,1128.41
2016-09-19T01:37:10.220Z,1128.5
2016-09-19T01:38:10.228Z,1128.55
2016-09-19T01:39:10.265Z,1128.26
2016-09-19T01:40:10.224Z,1128.39
2016-09-19T01:41:10.225Z,1128.41
2016-09-19T01:42:10.222Z,1128.27
2016-09-19T01:43:10.233Z,1128.31
2016-09-19T01:44:10.222Z,1128.27
2016-09-19T01:45:10.227Z,1128.06
2016-09-19T01:46:10.225Z,1127.98
2016-09-19T01:47:10.230Z,1127.7
2016-09-19T01:48:10.231Z,1127.74
2016-09-19T01:49:10.227Z,1127.81
2016-09-19T01:50:10.222Z,1127.76
2016-09-19T01:51:10.237Z,1127.78
2016-09-19T01:52:10.231Z,1127.62
2016-09-19T01:53:10.231Z,1127.52
2016-09-19T01:54:10.234Z,1127.44
2016-09-19T01:55:10.240Z,1127.18
2016-09-19T01:56:10.229Z,1127.04
2016-09-19T01:57:10.253Z,1126.96
2016-09-19T01:58:10.240Z,1126.99
2016-09-19T01:59:10.244Z,1126.81
2016-09-19T02:00:10.245Z,1126.84
2016-09-19T02:01:10.255Z,1126.63
2016-09-19T02:02:10.253Z,1126.58
2016-09-19T02:03:10.251Z,1126.27
2016-09-19T02:04:10.265Z,1126.45
2016-09-19T02:05:10.262Z,1126.42
2016-09-19T02:06:10.238Z,1126.29
2016-09-19T02:07:10.254Z,1126.32
2016-09-19T02:08:10.262Z,1126.18
2016-09-19T02:09:10.256Z,1126.24
2016-09-19T02:10:10.254Z,1126.04
2016-09-19T02:11:10.246Z,1126.04
2016-09-19T02:12:10.259Z,1126.25
2016-09-19T02:13:10.243Z,1126.03
2016-09-19T02:14:10.250Z,1125.98
2016-09-19T02:15:10.264Z,1126.05
2016-09-19T02:16:10.250Z,1126.08
2016-09-19T02:17:10.254Z,1125.92
2016-09-19T02:18:10.242Z,1126.01
2016-09-19T02:19:10.254Z,1126.04
2016-09-19T02:20:10.272Z,1125.98
2016-09-19T02:21:10.253Z,1125.85
2016-09-19T02:22:10.272Z,1125.94
2016-09-19T02:23:10.262Z,1125.75
2016-09-19T02:24:10.258Z,1125.51
2016-09-19T02:25:10.262Z,1125.63
2016-09-19T02:26:10.254Z,1125.65
2016-09-19T02:27:10.262Z,1125.61
2016-09-19T02:28:10.267Z,1125.43
2016-09-19T02:29:10.269Z,1125.42
2016-09-19T02:30:10.272Z,1125.47
2016-09-19T02:31:10.259Z,1125.24
2016-09-19T02:32:10.279Z,1124.99
2016-09-19T02:33:10.272Z,1125.35
2016-09-19T02:34:10.278Z,1125.12
2016-09-19T02:35:10.279Z,1125.09
2016-09-19T02:36:10.282Z,1125.16
2016-09-19T02:37:10.278Z,1124.85
2016-09-19T02:38:10.281Z,1124.94
2016-09-19T02:39:10.287Z,1124.59
2016-09-19T02:40:10.283Z,1124.61
2016-09-19T02:41:10.276Z,1124.56
2016-09-19T02:42:10.265Z,1124.36
2016-09-19T02:43:10.283Z,1124.41
2016-09-19T02:44:10.277Z,1124.18
2016-09-19T02:45:10.277Z,1124.01
2016-09-19T02:46:10.275Z,1124.08
2016-09-19T02:47:10.281Z,1123.98
2016-09-19T02:48:10.284Z,1124.14
2016-09-19T02:49:10.282Z,1124.07
2016-09-19T02:50:10.285Z,1124
2016-09-19T02:51:10.281Z,1124.06
2016-09-19T02:52:10.288Z,1123.96
2016-09-19T02:53:10.277Z,1123.75
2016-09-19T02:54:10.292Z,1123.64
2016-09-19T02:55:10.288Z,1123.46
2016-09-19T02:56:10.291Z,1123.4
2016-09-19T02:57:10.291Z,1123.07
2016-09-19T02:58:10.297Z,1123.03
2016-09-19T02:59:10.291Z,1123.04
2016-09-19T03:00:10.291Z,1122.93
2016-09-19T03:01:10.288Z,1122.77
2016-09-19T03:02:10.305Z,1122.8
2016-09-19T03:03:10.301Z,1122.58
2016-09-19T03:04:10.282Z,1122.49
2016-09-19T03:05:10.294Z,1122.61
2016-09-19T03:06:10.290Z,1122.49
2016-09-19T03:07:10.297Z,1122.49
2016-09-19T03:08:10.294Z,1122.38
2016-09-19T03:09:10.295Z,1122.28
2016-09-19T03:10:10.301Z,1122.41
2016-09-19T03:11:10.301Z,1122.24
2016-09-19T03:12:10.299Z,1122.15
2016-09-19T03:13:10.296Z,1122.12
2016-09-19T03:14:10.302Z,1122.1
2016-09-19T03:15:10.298Z,1121.92
2016-09-19T03:16:10.325Z,1121.91
2016-09-19T03:17:10.302Z,1121.79
2016-09-19T03:18:10.317Z,1121.97
2016-09-19T03:19:10.320Z,1121.84
2016-09-19T03:20:10.306Z,1121.66
2016-09-19T03:21:10.308Z,1121.68
2016-09-19T03:22:10.324Z,1121.39
2016-09-19T03:23:10.313Z,1121.58
2016-09-19T03:24:10.307Z,1121.41
2016-09-19T03:25:10.320Z,1121.33
2016-09-19T03:26:10.320Z,1121.31
2016-09-19T03:27:10.322Z,1121.21
2016-09-19T03:28:10.336Z,1120.88
2016-09-19T03:29:10.326Z,1120.91
2016-09-19T03:30:10.345Z,1120.89
2016-09-19T03:31:10.310Z,1120.72
2016-09-19T03:32:10.313Z,1120.78
2016-09-19T03:33:10.329Z,1120.79
2016-09-19T03:34:10.328Z,1120.64
2016-09-19T03:35:10.321Z,1120.59
2016-09-19T03:36:10.326Z,1120.52
2016-09-19T03:37:10.317Z,1120.53
2016-09-19T03:38:10.324Z,1120.22
2016-09-19T03:39:10.338Z,1120.15
2016-09-19T03:40:10.343Z,1120.25
2016-09-19T03:41:10.333Z,1120.16
2016-09-19T03:42:10.321Z,1119.92
2016-09-19T03:43:10.329Z,1119.97
2016-09-19T03:44:10.325Z,1119.98
2016-09-19T03:45:10.330Z,1119.92
2016-09-19T03:46:10.322Z,1119.69
2016-09-19T03:47:10.339Z,1119.61
2016-09-19T03:48:10.349Z,1119.55
2016-09-19T03:49:10.352Z,1119.44
2016-09-19T03:50:10.335Z,1119.27
2016-09-19T03:51:10.329Z,1119.44
2016-09-19T03:52:10.345Z,1119.24
2016-09-19T03:53:10.348Z,1119.01
2016-09-19T03:54:10.335Z,1118.9
2016-09-19T03:55:10.355Z,1118.84
2016-09-19T03:56:10.339Z,1118.81
2016-09-19T03:57:10.349Z,1118.85
2016-09-19T03:58:10.338Z,1119.12
2016-09-19T03:59:10.350Z,1118.93
2016-09-19T04:00:10.341Z,1118.95
2016-09-19T04:01:10.342Z,1118.66
2016-09-19T04:02:10.355Z,1118.72
2016-09-19T04:03:10.350Z,1118.57
2016-09-19T04:04:10.340Z,1118.41
2016-09-19T04:05:10.352Z,1118.32
2016-09-19T04:06:10.355Z,1118.12
2016-09-19T04:07:10.348Z,1117.93
2016-09-19T04:08:10.342Z,1117.99
2016-09-19T04:09:10.553Z,1117.82
2016-09-19T04:10:10.349Z,1117.44
2016-09-19T04:11:10.347Z,1117.55
2016-09-19T04:12:10.355Z,1117.36
2016-09-19T04:13:10.358Z,1117.38
2016-09-19T04:14:10.343Z,1117.31
2016-09-19T04:15:10.575Z,1117.3
2016-09-19T04:16:10.361Z,1117.25
2016-09-19T04:17:11.267Z,1117.24
2016-09-19T04:18:12.960Z,1117.04
2016-09-19T04:19:10.359Z,1117.14
2016-09-19T04:20:10.368Z,1116.84
2016-09-19T04:21:12.955Z,1116.89
2016-09-19T04:22:12.826Z,1116.78
2016-09-19T04:23:13.204Z,1116.81
2016-09-19T04:24:12.976Z,1116.59
2016-09-19T04:25:12.762Z,1116.35
2016-09-19T04:26:12.989Z,1116.51
2016-09-19T04:27:13.138Z,1116.45
2016-09-19T04:28:13.149Z,1116.33
2016-09-19T04:29:12.848Z,1116.24
2016-09-19T04:30:12.908Z,1116.09
2016-09-19T04:31:13.043Z,1115.71
2016-09-19T04:32:13.147Z,1115.62
2016-09-19T04:33:12.922Z,1115.57
2016-09-19T04:34:12.953Z,1115.59
2016-09-19T04:35:12.980Z,1115.41
2016-09-19T04:36:13.529Z,1115.38
2016-09-19T04:37:13.438Z,1115.41
2016-09-19T04:38:12.701Z,1115.23
2016-09-19T04:39:12.906Z,1115.14
2016-09-19T04:40:13.019Z,1115.15
2016-09-19T04:41:12.863Z,1115.04
2016-09-19T04:42:12.458Z,1115.06
2016-09-19T04:43:10.379Z,1114.84
2016-09-19T04:44:10.390Z,1114.75
2016-09-19T04:45:10.383Z,1114.8
2016-09-19T04:46:10.381Z,1114.34
2016-09-19T04:47:10.393Z,1114.44
2016-09-19T04:48:10.392Z,1114.48
2016-09-19T04:49:10.393Z,1114.38
2016-09-19T04:50:10.385Z,1114.09
2016-09-19T04:51:10.399Z,1113.95
2016-09-19T04:52:10.402Z,1113.96
2016-09-19T04:53:10.402Z,1113.96
2016-09-19T04:54:10.415Z,1113.46
2016-09-19T04:55:10.420Z,1113.48
2016-09-19T04:56:10.436Z,1113.26
2016-09-19T04:57:10.407Z,1113.44
2016-09-19T04:58:10.408Z,1113.39
2016-09-19T04:59:10.415Z,1113.04
2016-09-19T05:00:10.408Z,1112.92
2016-09-19T05:01:10.415Z,1112.99
2016-09-19T05:02:10.408Z,1113.07
2016-09-19T05:03:10.404Z,1112.79
2016-09-19T05:04:10.407Z,1112.9
2016-09-19T05:05:10.387Z,1112.56
2016-09-19T05:06:10.410Z,1112.58
2016-09-19T05:07:10.408Z,1112.33
2016-09-19T05:08:10.425Z,1112.45
2016-09-19T05:09:10.408Z,1112.13
2016-09-19T05:10:10.414Z,1112.28
2016-09-19T05:11:10.449Z,1112.17
2016-09-19T05:12:10.415Z,1111.89
2016-09-19T05:13:10.410Z,1111.72
2016-09-19T05:14:10.408Z,1111.67
2016-09-19T05:15:10.413Z,1111.77
2016-09-19T05:16:10.418Z,1111.71
2016-09-19T05:17:10.428Z,1111.61
2016-09-19T05:18:10.407Z,1111.62
2016-09-19T05:19:10.421Z,1111.64
2016-09-19T05:20:10.410Z,1111.58
2016-09-19T05:21:10.416Z,1111.51
2016-09-19T05:22:10.414Z,1111.88
2016-09-19T05:23:10.420Z,1112.56
2016-09-19T05:24:10.631Z,1113.31
2016-09-19T05:25:10.427Z,1114.29
2016-09-19T05:26:10.417Z,1115.12
2016-09-19T05:27:10.421Z,1115.71
2016-09-19T05:28:10.409Z,1116.76
2016-09-19T05:29:10.422Z,1117.33
2016-09-19T05:30:10.425Z,1118.08
2016-09-19T05:31:10.416Z,1118.44
2016-09-19T05:32:10.439Z,1118.78
2016-09-19T05:33:10.436Z,1119.23
2016-09-19T05:34:10.454Z,1119.78
2016-09-19T05:35:10.431Z,1120.2
2016-09-19T05:36:10.466Z,1120.69
2016-09-19T05:37:10.427Z,1121.11
2016-09-19T05:38:10.435Z,1121.4
2016-09-19T05:39:10.431Z,1121.74
2016-09-19T05:40:10.435Z,1122.04
2016-09-19T05:41:10.459Z,1122.28
2016-09-19T05:42:10.432Z,1122.36
2016-09-19T05:43:10.441Z,1122.49
2016-09-19T05:44:10.441Z,1122.73
2016-09-19T05:45:10.434Z,1122.52
2016-09-19T05:46:10.435Z,1122.47
2016-09-19T05:47:10.463Z,1122.49
2016-09-19T05:48:10.448Z,1122.7
2016-09-19T05:49:10.479Z,1122.64
2016-09-19T05:50:10.438Z,1122.37
2016-09-19T05:51:10.438Z,1122.73
2016-09-19T05:52:10.442Z,1122.84
2016-09-19T05:53:10.437Z,1123
2016-09-19T05:54:10.441Z,1123.18
2016-09-19T05:55:10.434Z,1123.39
2016-09-19T05:56:10.442Z,1123.48
2016-09-19T05:57:10.449Z,1123.49
2016-09-19T05:58:10.454Z,1123.63
2016-09-19T05:59:10.448Z,1123.82
2016-09-19T06:00:10.451Z,1124.08
2016-09-19T06:01:10.468Z,1124.31
2016-09-19T06:02:10.454Z,1124.73
2016-09-19T06:03:10.453Z,1125.26
2016-09-19T06:04:10.457Z,1126.01
2016-09-19T06:05:10.444Z,1126.31
2016-09-19T06:06:10.457Z,1126.8
2016-09-19T06:07:10.496Z,1127.1
2016-09-19T06:08:10.459Z,1127.52
2016-09-19T06:09:10.452Z,1128.03
2016-09-19T06:10:10.462Z,1128.74
2016-09-19T06:11:10.451Z,1129.36
2016-09-19T06:12:10.473Z,1129.68
2016-09-19T06:13:10.484Z,1130.22
2016-09-19T06:14:10.486Z,1130.82
2016-09-19T06:15:10.493Z,1131.69
2016-09-19T06:16:10.466Z,1132.33
2016-09-19T06:17:10.471Z,1132.82
2016-09-19T06:18:10.500Z,1133.23
2016-09-19T06:19:10.486Z,1133.55
2016-09-19T06:20:10.475Z,1133.65
2016-09-19T06:21:10.480Z,1133.41
2016-09-19T06:22:10.470Z,1133.03
2016-09-19T06:23:10.495Z,1132.36
2016-09-19T06:24:10.473Z,1131.3
2016-09-19T06:25:10.518Z,1130.53
2016-09-19T06:26:10.479Z,1129.87
2016-09-19T06:27:10.477Z,1128.99
2016-09-19T06:28:10.476Z,1128.44
2016-09-19T06:29:10.485Z,1127.53
2016-09-19T06:30:10.476Z,1126.96
2016-09-19T06:31:10.468Z,1126.38
2016-09-19T06:32:10.487Z,1125.74
2016-09-19T06:33:10.474Z,1125.37
2016-09-19T06:34:10.479Z,1124.97
2016-09-19T06:35:10.470Z,1124.58
2016-09-19T06:36:10.473Z,1124.14
2016-09-19T06:37:10.478Z,1123.51
2016-09-19T06:38:10.505Z,1123.34
2016-09-19T06:39:10.507Z,1123.12
2016-09-19T06:40:10.502Z,1122.76
2016-09-19T06:41:10.489Z,1122.63
2016-09-19T06:42:10.484Z,1122.27
2016-09-19T06:43:10.482Z,1121.6
2016-09-19T06:44:10.496Z,1120.81
2016-09-19T06:45:10.490Z,1120.07
2016-09-19T06:46:10.495Z,1119.39
2016-09-19T06:47:10.493Z,1118.97
2016-09-19T06:48:10.486Z,1118.78
2016-09-19T06:49:10.485Z,1118.38
2016-09-19T06:50:10.500Z,1118.19
2016-09-19T06:51:10.511Z,1117.83
2016-09-19T06:52:10.487Z,1118.04
2016-09-19T06:53:10.529Z,1118.04
2016-09-19T06:54:10.501Z,1118.16
2016-09-19T06:55:10.489Z,1118.53
2016-09-19T06:56:10.509Z,1118.6
2016-09-19T06:57:10.521Z,1118.48
2016-09-19T06:58:10.499Z,1118.64
2016-09-19T06:59:10.487Z,1118.83
2016-09-19T07:00:10.502Z,1119.01
2016-09-19T07:01:10.506Z,1119.04
2016-09-19T07:02:10.514Z,1119.42
2016-09-19T07:03:10.509Z,1119.36
2016-09-19T07:04:10.503Z,1119.6
2016-09-19T07:05:10.511Z,1119.96
2016-09-19T07:06:10.504Z,1120.02
2016-09-19T07:07:10.518Z,1120.18
2016-09-19T07:08:10.504Z,1120.7
2016-09-19T07:09:10.522Z,1120.97
2016-09-19T07:10:10.500Z,1121.2
2016-09-19T07:11:10.503Z,1121.62
2016-09-19T07:12:10.511Z,1122.31
2016-09-19T07:13:10.509Z,1122.54
2016-09-19T07:14:10.511Z,1123.12
2016-09-19T07:15:10.516Z,1123.15
2016-09-19T07:16:10.513Z,1123.52
2016-09-19T07:17:10.513Z,1123.76
2016-09-19T07:18:10.520Z,1124.11
2016-09-19T07:19:10.532Z,1124.34
2016-09-19T07:20:10.526Z,1124.42
2016-09-19T07:21:10.522Z,1124.88
2016-09-19T07:22:10.516Z,1125.3
2016-09-19T07:23:10.523Z,1125.62
2016-09-19T07:24:10.560Z,1126.26
2016-09-19T07:25:10.538Z,1126.22
2016-09-19T07:26:10.548Z,1126.85
2016-09-19T07:27:12.013Z,1127.17
2016-09-19T07:28:18.627Z,1127.47
2016-09-19T07:29:10.549Z,1127.95
2016-09-19T07:30:10.554Z,1128.64
2016-09-19T07:31:10.541Z,1128.77
2016-09-19T07:32:10.533Z,1129.08
2016-09-19T07:33:10.556Z,1129.6
2016-09-19T07:34:10.561Z,1129.54
2016-09-19T07:35:10.553Z,1130.17
2016-09-19T07:36:10.561Z,1130.55
2016-09-19T07:37:10.560Z,1130.85
2016-09-19T07:38:10.557Z,1131.71
2016-09-19T07:39:10.551Z,1132.16
2016-09-19T07:40:10.575Z,1132.6
2016-09-19T07:41:10.537Z,1133.45
2016-09-19T07:42:10.551Z,1134.14
2016-09-19T07:43:10.550Z,1135.7
2016-09-19T07:44:10.595Z,1139.26
2016-09-19T07:45:10.543Z,1145.73
2016-09-19T07:46:10.575Z,1152.52
2016-09-19T07:47:10.552Z,1158.26
2016-09-19T07:48:10.569Z,1161.63
2016-09-19T07:49:10.617Z,1162.97
2016-09-19T07:50:10.556Z,1163.44
2016-09-19T07:51:10.573Z,1163.43
2016-09-19T07:52:10.546Z,1163.3
2016-09-19T07:53:10.553Z,1162.75
2016-09-19T07:54:10.572Z,1161.75
2016-09-19T07:55:10.544Z,1160.61
2016-09-19T07:56:10.594Z,1159.56
2016-09-19T07:57:10.543Z,1158.8
2016-09-19T07:58:10.548Z,1158.26
2016-09-19T07:59:10.540Z,1157.85
2016-09-19T08:00:10.562Z,1157.55
2016-09-19T08:01:10.543Z,1157.37
2016-09-19T08:02:10.558Z,1157.06
2016-09-19T08:03:10.554Z,1157.01
2016-09-19T08:04:10.556Z,1157.08
2016-09-19T08:05:10.566Z,1157.01
2016-09-19T08:06:10.575Z,1156.94
2016-09-19T08:07:10.562Z,1156.98
2016-09-19T08:08:10.564Z,1157.21
2016-09-19T08:09:10.556Z,1157.68
2016-09-19T08:10:10.582Z,1158.27
2016-09-19T08:11:10.576Z,1159.12
2016-09-19T08:12:10.565Z,1159.85
2016-09-19T08:13:10.560Z,1160.49
2016-09-19T08:14:10.561Z,1160.97
2016-09-19T08:15:10.569Z,1161.44
2016-09-19T08:16:10.563Z,1161.7
2016-09-19T08:17:10.587Z,1162.12
2016-09-19T08:18:10.565Z,1162.52
2016-09-19T08:19:10.571Z,1163.04
2016-09-19T08:20:10.560Z,1163.44
2016-09-19T08:21:10.579Z,1163.71
2016-09-19T08:22:10.563Z,1163.9
2016-09-19T08:23:10.585Z,1163.96
2016-09-19T08:24:10.576Z,1163.9
2016-09-19T08:25:10.585Z,1163.92
2016-09-19T08:26:10.575Z,1163.87
2016-09-19T08:27:10.572Z,1163.9
2016-09-19T08:28:10.590Z,1163.78
2016-09-19T08:29:10.569Z,1163.74
2016-09-19T08:30:10.576Z,1163.73
2016-09-19T08:31:10.587Z,1163.7
2016-09-19T08:32:10.589Z,1163.65
2016-09-19T08:33:10.594Z,1163.56
2016-09-19T08:34:10.586Z,1163.44
2016-09-19T08:35:10.578Z,1163.31
2016-09-19T08:36:10.587Z,1163.16
2016-09-19T08:37:10.583Z,1163.01
2016-09-19T08:38:10.575Z,1162.71
2016-09-19T08:39:10.596Z,1162.48
2016-09-19T08:40:10.596Z,1162.13
2016-09-19T08:41:10.594Z,1161.65
2016-09-19T08:42:10.586Z,1161.2
2016-09-19T08:43:10.604Z,1160.68
2016-09-19T08:44:10.584Z,1160.08
2016-09-19T08:45:10.590Z,1159.65
2016-09-19T08:46:10.607Z,1159.07
2016-09-19T08:47:10.614Z,1158.37
2016-09-19T08:48:10.608Z,1157.64
2016-09-19T08:49:10.602Z,1157.01
2016-09-19T08:50:10.605Z,1156.76
2016-09-19T08:51:10.821Z,1156.84
2016-09-19T08:52:10.607Z,1157.35
2016-09-19T08:53:10.608Z,1157.92
2016-09-19T08:54:10.617Z,1158.49
2016-09-19T08:55:10.753Z,1158.87
2016-09-19T08:56:10.755Z,1158.78
2016-09-19T08:57:10.611Z,1158.73
2016-09-19T08:58:10.749Z,1158.89
2016-09-19T08:59:10.609Z,1159.3
2016-09-19T09:00:10.608Z,1159.32
2016-09-19T09:01:10.619Z,1159.29
2016-09-19T09:02:10.611Z,1159.96
2016-09-19T09:03:10.605Z,1160.59
2016-09-19T09:04:10.622Z,1161.15
2016-09-19T09:05:10.604Z,1161.76
2016-09-19T09:06:10.620Z,1162.25
2016-09-19T09:07:10.620Z,1162.48
2016-09-19T09:08:10.614Z,1162.49
2016-09-19T09:09:10.621Z,1162.45
2016-09-19T09:10:10.620Z,1162.28
2016-09-19T09:11:10.627Z,1162.08
2016-09-19T09:12:10.633Z,1162.09
2016-09-19T09:13:10.629Z,1162.27
2016-09-19T09:14:10.628Z,1162.27
2016-09-19T09:15:10.631Z,1162.15
2016-09-19T09:16:10.634Z,1162.01
2016-09-19T09:17:10.656Z,1162
2016-09-19T09:18:10.642Z,1162.03
2016-09-19T09:19:10.635Z,1162.16
2016-09-19T09:20:10.637Z,1162.44
2016-09-19T09:21:10.635Z,1162.9
2016-09-19T09:22:10.644Z,1163.31
2016-09-19T09:23:10.641Z,1163.58
2016-09-19T09:24:10.631Z,1163.71
2016-09-19T09:25:10.635Z,1163.89
2016-09-19T09:26:10.625Z,1164.03
2016-09-19T09:27:10.636Z,1164.14
2016-09-19T09:28:10.647Z,1164.25
2016-09-19T09:29:10.631Z,1164.28
2016-09-19T09:30:10.641Z,1164.31
2016-09-19T09:31:10.631Z,1164.37
2016-09-19T09:32:10.670Z,1164.36
2016-09-19T09:33:10.634Z,1164.31
2016-09-19T09:34:10.653Z,1164.21
2016-09-19T09:35:10.632Z,1164.23
2016-09-19T09:36:10.661Z,1164.25
2016-09-19T09:37:10.645Z,1164.24
2016-09-19T09:38:10.635Z,1164.19
2016-09-19T09:39:10.653Z,1164.1
2016-09-19T09:40:10.649Z,1164.05
2016-09-19T09:41:10.655Z,1163.85
2016-09-19T09:42:10.653Z,1163.62
2016-09-19T09:43:10.651Z,1163.58
2016-09-19T09:44:10.653Z,1163.55
2016-09-19T09:45:10.659Z,1163.45
2016-09-19T09:46:10.660Z,1163.49
2016-09-19T09:47:10.664Z,1163.5
2016-09-19T09:48:10.658Z,1163.51
2016-09-19T09:49:10.666Z,1163.5
2016-09-19T09:50:10.664Z,1163.43
2016-09-19T09:51:10.673Z,1163.44
2016-09-19T09:52:10.655Z,1163.45
2016-09-19T09:53:10.657Z,1163.51
2016-09-19T09:54:10.665Z,1163.62
2016-09-19T09:55:10.664Z,1163.63
2016-09-19T09:56:10.672Z,1163.72
2016-09-19T09:57:10.671Z,1163.85
2016-09-19T09:58:10.662Z,1163.91
2016-09-19T09:59:10.667Z,1163.93
2016-09-19T10:00:10.676Z,1164.12
2016-09-19T10:01:10.680Z,1164.08
2016-09-19T10:02:10.671Z,1164.1
2016-09-19T10:03:10.694Z,1164.09
2016-09-19T10:04:10.678Z,1164.09
2016-09-19T10:05:10.666Z,1164.11
2016-09-19T10:06:10.684Z,1164.11
2016-09-19T10:07:10.681Z,1164.1
2016-09-19T10:08:10.669Z,1164.13
2016-09-19T10:09:10.666Z,1164.13
2016-09-19T10:10:10.671Z,1164.19
2016-09-19T10:11:10.673Z,1164.21
2016-09-19T10:12:10.670Z,1164.31
2016-09-19T10:13:10.688Z,1164.28
2016-09-19T10:14:10.684Z,1164.29
2016-09-19T10:15:10.683Z,1164.32
2016-09-19T10:16:10.703Z,1164.22
2016-09-19T10:17:10.703Z,1164.19
2016-09-19T10:18:10.690Z,1164.14
2016-09-19T10:19:10.685Z,1163.96
2016-09-19T10:20:10.690Z,1163.72
2016-09-19T10:21:10.697Z,1163.51
2016-09-19T10:22:10.686Z,1163.29
2016-09-19T10:23:10.690Z,1162.93
2016-09-19T10:24:10.696Z,1162.63
2016-09-19T10:25:10.703Z,1162.11
2016-09-19T10:26:10.694Z,1161.42
2016-09-19T10:27:10.681Z,1160.59
2016-09-19T10:28:10.695Z,1159.81
2016-09-19T10:29:10.690Z,1159.06
2016-09-19T10:30:10.698Z,1158.3
2016-09-19T10:31:10.700Z,1157.52
2016-09-19T10:32:10.694Z,1156.56
2016-09-19T10:33:10.706Z,1155.76
2016-09-19T10:34:10.690Z,1154.94
2016-09-19T10:35:10.699Z,1154.12
2016-09-19T10:36:10.694Z,1152.87
2016-09-19T10:37:10.716Z,1151.37
2016-09-19T10:38:10.705Z,1150
2016-09-19T10:39:10.709Z,1149.33
2016-09-19T10:40:10.707Z,1148.57
2016-09-19T10:41:10.709Z,1148.34
2016-09-19T10:42:10.700Z,1147.71
2016-09-19T10:43:10.710Z,1147.05
2016-09-19T10:44:10.710Z,1146.22
2016-09-19T10:45:10.708Z,1145.26
2016-09-19T10:46:10.701Z,1143.75
2016-09-19T10:47:10.702Z,1142.1
2016-09-19T10:48:10.710Z,1141
2016-09-19T10:49:10.716Z,1139.89
2016-09-19T10:50:10.716Z,1139.44
2016-09-19T10:51:10.717Z,1139.67
2016-09-19T10:52:10.708Z,1140.03
2016-09-19T10:53:10.727Z,1140.8
2016-09-19T10:54:10.724Z,1141.54
2016-09-19T10:55:10.737Z,1142.94
2016-09-19T10:56:10.721Z,1144.53
2016-09-19T10:57:10.729Z,1145.37
2016-09-19T10:58:10.730Z,1145.56
2016-09-19T10:59:10.737Z,1145.44
2016-09-19T11:00:10.742Z,1145.82
2016-09-19T11:01:10.725Z,1147.14
2016-09-19T11:02:10.734Z,1148.73
2016-09-19T11:03:10.731Z,1150.12
2016-09-19T11:04:10.734Z,1150.96
2016-09-19T11:05:10.743Z,1151.78
2016-09-19T11:06:10.751Z,1152.96
2016-09-19T11:07:10.730Z,1153.81
2016-09-19T11:08:10.739Z,1154.78
2016-09-19T11:09:10.737Z,1155.53
2016-09-19T11:10:10.754Z,1156.15
2016-09-19T11:11:10.735Z,1156.66
2016-09-19T11:12:10.737Z,1156.97
2016-09-19T11:13:10.743Z,1157.09
2016-09-19T11:14:10.735Z,1157.33
2016-09-19T11:15:10.747Z,1157.57
2016-09-19T11:16:10.753Z,1157.76
2016-09-19T11:17:10.760Z,1157.67
2016-09-19T11:18:10.753Z,1157.48
2016-09-19T11:19:10.752Z,1157.26
2016-09-19T11:20:10.742Z,1156.83
2016-09-19T11:21:10.746Z,1156.53
2016-09-19T11:22:10.745Z,1156.38
2016-09-19T11:23:10.743Z,1156.26
2016-09-19T11:24:10.753Z,1155.98
2016-09-19T11:25:10.751Z,1155.56
2016-09-19T11:26:10.752Z,1155.18
2016-09-19T11:27:10.749Z,1154.6
2016-09-19T11:28:10.755Z,1154.15
2016-09-19T11:29:10.743Z,1153.46
2016-09-19T11:30:10.748Z,1152.72
2016-09-19T11:31:10.756Z,1152.06
2016-09-19T11:32:10.751Z,1151.31
2016-09-19T11:33:10.757Z,1150.73
2016-09-19T11:34:10.762Z,1150.5
2016-09-19T11:35:10.756Z,1150.69
2016-09-19T11:36:10.761Z,1150.68
2016-09-19T11:37:10.752Z,1150.14
2016-09-19T11:38:10.772Z,1149.6
2016-09-19T11:39:10.761Z,1149.12
2016-09-19T11:40:10.771Z,1148.39
2016-09-19T11:41:10.777Z,1147.76
2016-09-19T11:42:10.787Z,1147.98
2016-09-19T11:43:10.755Z,1148.41
2016-09-19T11:44:10.770Z,1148.21
2016-09-19T11:45:10.778Z,1148.19
2016-09-19T11:46:10.770Z,1148.19
2016-09-19T11:47:10.772Z,1148.4
2016-09-19T11:48:10.784Z,1148.55
2016-09-19T11:49:10.783Z,1148.08
2016-09-19T11:50:10.778Z,1147.8
2016-09-19T11:51:10.791Z,1147.93
2016-09-19T11:52:10.780Z,1148.42
2016-09-19T11:53:10.775Z,1148.87
2016-09-19T11:54:10.775Z,1149.64
2016-09-19T11:55:10.775Z,1149.97
2016-09-19T11:56:10.783Z,1149.84
2016-09-19T11:57:10.780Z,1149.16
2016-09-19T11:58:10.786Z,1148.42
2016-09-19T11:59:10.786Z,1147.21
2016-09-19T12:00:10.792Z,1146.38
2016-09-19T12:01:10.775Z,1145.8
2016-09-19T12:02:10.783Z,1145.11
2016-09-19T12:03:10.787Z,1143.8
2016-09-19T12:04:10.781Z,1142.33
2016-09-19T12:05:10.803Z,1140.25
2016-09-19T12:06:10.781Z,1138.45
2016-09-19T12:07:10.783Z,1136.71
2016-09-19T12:08:10.796Z,1135.48